Time;durP1;ratioP1;P1;durP2;ratioP2;P2;SDS_P1;SDS_P2;PMS_P1;PMS_P2;Temp;Humidity;BMP_temperature;BMP_pressure;BME280_temperature;BME280_humidity;BME280_pressure;Samples;Min_cycle;Max_cycle;Signal;HPM_P1;HPM_P2
2022/06/07 00:01:13;;;;;;;20.20;18.50;;;;;;;18.43;71.54;100337.81;111676;1250;21959;-75
2022/06/07 00:04:24;;;;;;;21.80;19.90;;;;;;;18.43;71.53;100372.42;111382;1253;21964;-75
2022/06/07 00:07:30;;;;;;;22.70;20.60;;;;;;;18.40;71.58;100366.23;111046;1252;22693;-76
2022/06/07 00:10:11;;;;;;;23.90;21.70;;;;;;;18.36;71.79;100359.66;110400;1261;23019;-77
2022/06/07 00:12:52;;;;;;;22.00;20.30;;;;;;;18.38;71.98;100365.42;110564;1262;21946;-76
2022/06/07 00:15:41;;;;;;;22.30;20.60;;;;;;;18.42;72.01;100359.55;110619;1262;21999;-77
2022/06/07 00:18:14;;;;;;;21.00;19.30;;;;;;;18.47;71.91;100355.70;110468;1262;22216;-76
2022/06/07 00:21:34;;;;;;;;;;;;;;;;;;;;;
2022/06/07 00:25:01;;;;;;;19.90;18.00;;;;;;;18.50;71.73;100346.56;111046;1257;21976;-76
2022/06/07 00:27:34;;;;;;;18.60;17.00;;;;;;;18.54;71.65;100331.59;110068;1257;23038;-77
2022/06/07 00:33:24;;;;;;;18.10;16.70;;;;;;;18.63;71.48;100326.55;111233;1256;22134;-75
2022/06/07 00:36:23;;;;;;;19.30;17.40;;;;;;;18.66;71.35;100324.19;111157;1256;21978;-76
2022/06/07 00:39:03;;;;;;;17.90;16.40;;;;;;;18.69;71.12;100318.34;111145;1256;22143;-74
2022/06/07 00:41:53;;;;;;;19.20;17.60;;;;;;;18.70;71.01;100320.32;110288;1262;23686;-76
2022/06/07 00:44:41;;;;;;;17.50;16.00;;;;;;;18.73;70.78;100327.59;110075;1262;22032;-75
2022/06/07 00:47:36;;;;;;;18.30;16.90;;;;;;;18.73;70.61;100328.82;109873;1266;23045;-76
2022/06/07 00:51:26;;;;;;;19.70;18.10;;;;;;;18.70;70.62;100332.09;109828;1267;22230;-76
2022/06/07 00:54:09;;;;;;;16.80;15.50;;;;;;;18.68;70.64;100331.94;110039;1265;21989;-76
2022/06/07 00:56:55;;;;;;;17.50;15.90;;;;;;;18.66;70.65;100328.19;109684;1270;21973;-76
2022/06/07 00:59:38;;;;;;;16.80;15.50;;;;;;;18.71;70.71;100333.66;109521;1270;22014;-75
2022/06/07 01:02:13;;;;;;;17.60;16.10;;;;;;;18.75;70.69;100331.98;109465;1270;23024;-76
2022/06/07 01:04:46;;;;;;;19.40;17.70;;;;;;;18.78;70.69;100325.33;109447;1264;21998;-76
2022/06/07 01:13:30;;;;;;;18.30;16.80;;;;;;;18.77;70.49;100328.34;110667;1254;23676;-76
2022/06/07 01:16:17;;;;;;;18.20;16.50;;;;;;;18.76;70.48;100339.55;111423;1249;21950;-76
2022/06/07 01:19:19;;;;;;;18.30;16.70;;;;;;;18.74;70.45;100338.95;111666;1253;21970;-77
2022/06/07 01:21:53;;;;;;;19.20;17.70;;;;;;;18.73;70.53;100336.89;110819;1250;23703;-76
2022/06/07 01:24:27;;;;;;;17.50;16.00;;;;;;;18.74;70.53;100331.24;110558;1253;23692;-76
2022/06/07 01:27:14;;;;;;;17.60;16.10;;;;;;;18.74;70.65;100319.84;110748;1252;24283;-76
2022/06/07 01:29:47;;;;;;;18.90;17.30;;;;;;;18.74;70.67;100312.27;110743;1251;22020;-75
2022/06/07 01:32:18;;;;;;;16.60;15.20;;;;;;;18.74;70.66;100319.14;110583;1250;22196;-77
2022/06/07 01:34:48;;;;;;;19.00;17.60;;;;;;;18.74;70.86;100317.33;110734;1251;21974;-76
2022/06/07 01:37:27;;;;;;;17.40;15.90;;;;;;;18.73;70.91;100311.24;110946;1251;21952;-75
2022/06/07 01:43:00;;;;;;;19.40;17.20;;;;;;;18.70;71.10;100296.60;110495;1251;21971;-76
2022/06/07 01:45:32;;;;;;;17.40;16.10;;;;;;;18.66;71.06;100296.86;110542;1253;22426;-76
2022/06/07 01:48:08;;;;;;;18.80;17.10;;;;;;;18.61;70.98;100305.21;110871;1251;21956;-76
2022/06/07 01:50:37;;;;;;;16.80;15.30;;;;;;;18.56;70.99;100303.70;110840;1251;22057;-76
2022/06/07 01:53:13;;;;;;;17.70;16.20;;;;;;;18.52;71.18;100299.30;110580;1251;23673;-76
2022/06/07 01:55:43;;;;;;;18.10;16.70;;;;;;;18.50;71.38;100293.48;110721;1251;21979;-76
2022/06/07 01:58:16;;;;;;;17.90;16.20;;;;;;;18.46;71.39;100293.40;110608;1250;22274;-77
2022/06/07 02:00:45;;;;;;;18.60;16.80;;;;;;;18.42;71.45;100288.04;110698;1253;22624;-77
2022/06/07 02:03:15;;;;;;;20.20;18.30;;;;;;;18.37;71.39;100280.02;110217;1259;22009;-77
2022/06/07 02:06:05;;;;;;;23.80;21.80;;;;;;;18.31;71.58;100275.10;110324;1257;21977;-76
2022/06/07 02:08:52;;;;;;;17.40;15.90;;;;;;;18.25;71.82;100273.19;110038;1259;22027;-78
2022/06/07 02:11:25;;;;;;;18.90;17.30;;;;;;;18.19;71.88;100269.79;110378;1257;22753;-77
2022/06/07 02:14:08;;;;;;;20.10;18.40;;;;;;;18.15;72.13;100263.40;110373;1257;24374;-76
2022/06/07 02:16:40;;;;;;;20.00;18.50;;;;;;;18.14;72.18;100257.54;110447;1256;21976;-77
2022/06/07 02:19:11;;;;;;;22.10;20.40;;;;;;;18.12;72.26;100250.95;110190;1257;23667;-76
2022/06/07 02:21:44;;;;;;;22.40;20.50;;;;;;;18.09;72.29;100246.21;109542;1263;21988;-76
2022/06/07 02:24:15;;;;;;;21.00;19.20;;;;;;;18.04;72.30;100247.08;109088;1267;21972;-76
2022/06/07 02:26:56;;;;;;;18.40;16.90;;;;;;;17.99;72.40;100251.13;109161;1267;24328;-76
2022/06/07 02:29:39;;;;;;;19.40;17.50;;;;;;;17.95;72.59;100248.81;109427;1263;22001;-76
2022/06/07 02:32:33;;;;;;;20.00;18.40;;;;;;;17.91;72.76;100247.83;109631;1264;21974;-76
2022/06/07 02:35:07;;;;;;;22.10;20.10;;;;;;;17.87;72.88;100245.63;109392;1262;21967;-76
2022/06/07 02:37:41;;;;;;;21.30;19.70;;;;;;;17.90;73.13;100243.67;109047;1268;22066;-76
2022/06/07 02:40:17;;;;;;;20.80;19.00;;;;;;;17.93;73.19;100244.64;109590;1262;21999;-77
2022/06/07 02:42:49;;;;;;;20.60;19.00;;;;;;;17.97;73.34;100237.77;110123;1257;22738;-75
2022/06/07 02:45:22;;;;;;;19.80;18.20;;;;;;;17.98;73.09;100238.17;110455;1257;21964;-76
2022/06/07 02:52:38;;;;;;;;;;;;;;;17.88;73.25;100236.54;110439;1257;21947;-76
2022/06/07 02:59:20;;;;;;;20.90;19.20;;;;;;;17.84;73.70;100245.66;110536;1254;23696;-76
2022/06/07 03:01:50;;;;;;;22.40;20.60;;;;;;;17.90;73.60;100240.48;110290;1254;22775;-76
2022/06/07 03:04:29;;;;;;;22.90;20.70;;;;;;;17.93;73.40;100239.08;110627;1254;22062;-75
2022/06/07 03:07:09;;;;;;;21.10;19.50;;;;;;;17.94;73.05;100237.02;110269;1260;22041;-75
2022/06/07 03:09:48;;;;;;;22.20;20.20;;;;;;;17.94;73.16;100236.37;110269;1258;22446;-76
2022/06/07 03:12:20;;;;;;;22.30;20.40;;;;;;;17.96;73.14;100235.20;110457;1259;22038;-76
2022/06/07 03:14:54;;;;;;;23.50;21.50;;;;;;;17.96;73.10;100235.08;110265;1260;21961;-76
2022/06/07 03:17:26;;;;;;;22.20;20.30;;;;;;;17.96;73.04;100236.52;110296;1257;21960;-77
2022/06/07 03:20:07;;;;;;;22.20;20.10;;;;;;;17.96;73.13;100235.81;110320;1254;21977;-77
2022/06/07 03:22:38;;;;;;;23.70;21.80;;;;;;;17.97;73.17;100232.10;110609;1255;22057;-77
2022/06/07 03:25:18;;;;;;;25.00;22.90;;;;;;;17.98;73.08;100230.70;110656;1251;23658;-77
2022/06/07 03:28:03;;;;;;;22.50;20.70;;;;;;;18.00;73.18;100228.50;110692;1250;22744;-77
2022/06/07 03:31:41;;;;;;;23.00;21.00;;;;;;;18.01;73.22;100229.02;110823;1251;21971;-76
2022/06/07 03:34:17;;;;;;;24.20;22.10;;;;;;;18.04;73.45;100230.11;111077;1249;21980;-76
2022/06/07 03:36:47;;;;;;;22.40;20.70;;;;;;;18.07;73.45;100230.09;110846;1251;21975;-75
2022/06/07 03:39:18;;;;;;;24.20;22.10;;;;;;;18.12;73.31;100229.05;110923;1249;23025;-76
2022/06/07 03:41:56;;;;;;;25.60;23.60;;;;;;;18.15;73.30;100226.89;110725;1251;21980;-75
2022/06/07 03:44:28;;;;;;;23.90;21.80;;;;;;;18.21;73.28;100226.05;110737;1251;23580;-77
2022/06/07 03:47:05;;;;;;;22.90;21.30;;;;;;;18.26;73.16;100226.64;110808;1254;21930;-76
2022/06/07 03:49:45;;;;;;;24.70;22.80;;;;;;;18.30;73.02;100229.52;110473;1257;22502;-77
2022/06/07 03:52:20;;;;;;;23.70;21.70;;;;;;;18.34;73.18;100228.70;110391;1257;21975;-77
2022/06/07 03:54:50;;;;;;;25.80;23.80;;;;;;;18.40;73.02;100229.55;110367;1257;22432;-77
2022/06/07 03:57:25;;;;;;;23.60;21.70;;;;;;;18.43;72.75;100230.63;109647;1263;22046;-77
2022/06/07 04:00:01;;;;;;;26.10;23.90;;;;;;;18.48;72.85;100234.93;110080;1260;21966;-77
2022/06/07 04:02:43;;;;;;;26.80;24.80;;;;;;;18.52;72.59;100234.89;110000;1260;23221;-78
2022/06/07 04:05:21;;;;;;;24.90;22.90;;;;;;;18.55;72.42;100230.05;109831;1262;21971;-76
2022/06/07 04:08:13;;;;;;;25.30;23.20;;;;;;;18.59;72.36;100228.77;109940;1257;21958;-76
2022/06/07 04:11:02;;;;;;;23.80;21.90;;;;;;;18.61;72.25;100230.73;110134;1260;21963;-76
2022/06/07 04:13:48;;;;;;;24.00;22.10;;;;;;;18.66;72.29;100231.11;110062;1260;24274;-76
2022/06/07 04:16:40;;;;;;;;;;;;;;;;;;;;;
2022/06/07 04:19:27;;;;;;;21.80;20.10;;;;;;;18.84;72.43;100230.32;110492;1257;21976;-76
2022/06/07 04:21:57;;;;;;;22.20;20.40;;;;;;;18.94;72.12;100230.19;110364;1257;22201;-77
2022/06/07 04:25:00;;;;;;;21.90;20.20;;;;;;;19.00;71.78;100229.23;110334;1257;22063;-76
2022/06/07 04:27:37;;;;;;;24.10;21.70;;;;;;;19.08;71.65;100227.41;110332;1257;22071;-77
2022/06/07 04:30:18;;;;;;;23.60;21.70;;;;;;;19.14;71.58;100223.12;110764;1254;22215;-76
2022/06/07 04:32:50;;;;;;;23.80;21.30;;;;;;;19.23;71.35;100221.89;110647;1254;22919;-77
2022/06/07 04:35:27;;;;;;;23.10;20.90;;;;;;;19.29;70.93;100224.36;110610;1254;21959;-75
2022/06/07 04:38:13;;;;;;;23.80;21.70;;;;;;;19.35;70.81;100229.92;110423;1257;23596;-76
2022/06/07 04:40:45;;;;;;;26.30;23.60;;;;;;;19.38;70.37;100229.20;110503;1254;23583;-76
2022/06/07 04:43:31;;;;;;;24.10;21.80;;;;;;;19.38;70.02;100231.45;110070;1260;22722;-76
2022/06/07 04:46:14;;;;;;;23.10;21.00;;;;;;;19.39;70.02;100229.30;110260;1257;23039;-75
2022/06/07 04:48:55;;;;;;;19.40;18.00;;;;;;;19.37;69.59;100226.35;110414;1257;21974;-75
2022/06/07 04:51:49;;;;;;;;;;;;;;;;;;;;;
2022/06/07 04:54:49;;;;;;;17.10;15.70;;;;;;;19.34;70.02;100223.84;109916;1260;22429;-75
2022/06/07 04:57:23;;;;;;;18.40;16.60;;;;;;;19.40;70.26;100226.38;110299;1258;22627;-76
2022/06/07 04:59:56;;;;;;;11.90;11.00;;;;;;;19.53;70.31;100231.99;109637;1262;23044;-76
2022/06/07 05:02:35;;;;;;;12.60;11.50;;;;;;;19.69;70.18;100230.87;109591;1264;22077;-76
2022/06/07 05:05:11;;;;;;;11.00;10.00;;;;;;;19.87;69.80;100233.25;109213;1268;21978;-74
2022/06/07 05:07:50;;;;;;;12.80;11.60;;;;;;;20.00;68.67;100231.07;109181;1267;22769;-74
2022/06/07 05:10:23;;;;;;;14.10;13.00;;;;;;;20.05;67.89;100225.05;109214;1267;23835;-74
2022/06/07 05:13:00;;;;;;;14.20;12.80;;;;;;;20.14;67.76;100225.09;109027;1267;22001;-74
2022/06/07 05:15:32;;;;;;;14.30;13.10;;;;;;;20.21;67.36;100228.34;108525;1273;22048;-75
2022/06/07 05:18:07;;;;;;;13.90;12.60;;;;;;;20.28;67.22;100226.23;108826;1269;21959;-75
2022/06/07 05:20:37;;;;;;;12.10;10.90;;;;;;;20.38;67.40;100230.05;109352;1263;21990;-75
2022/06/07 05:23:18;;;;;;;14.20;12.80;;;;;;;20.54;67.43;100232.25;109771;1257;23686;-75
2022/06/07 05:26:13;;;;;;;13.60;12.30;;;;;;;20.74;67.30;100230.41;110091;1257;22972;-75
2022/06/07 05:28:50;;;;;;;13.90;12.60;;;;;;;20.97;66.93;100229.90;110088;1257;21970;-77
2022/06/07 05:31:27;;;;;;;14.10;12.80;;;;;;;21.19;66.35;100229.29;110345;1259;22349;-75
2022/06/07 05:34:01;;;;;;;12.80;11.60;;;;;;;21.43;66.05;100236.30;110343;1257;23091;-76
2022/06/07 05:36:31;;;;;;;12.50;11.30;;;;;;;21.67;65.48;100233.27;110133;1257;23623;-76
2022/06/07 05:39:04;;;;;;;13.00;11.60;;;;;;;21.91;64.83;100230.27;110088;1257;21966;-76
2022/06/07 05:41:34;;;;;;;13.50;12.30;;;;;;;22.19;64.14;100230.70;110401;1255;22032;-75
2022/06/07 05:44:09;;;;;;;12.00;10.90;;;;;;;22.46;63.25;100232.91;110692;1254;21964;-76
2022/06/07 05:46:42;;;;;;;12.40;11.30;;;;;;;22.75;62.50;100241.34;110498;1254;23039;-76
2022/06/07 05:49:19;;;;;;;11.90;10.90;;;;;;;23.11;62.06;100250.84;110173;1258;21964;-76
2022/06/07 05:51:57;;;;;;;12.20;11.10;;;;;;;23.51;61.39;100251.95;110472;1257;22316;-75
2022/06/07 05:54:32;;;;;;;12.90;11.50;;;;;;;23.86;60.03;100252.05;110353;1257;22061;-76
2022/06/07 05:57:02;;;;;;;14.70;12.90;;;;;;;24.19;58.77;100254.45;110270;1258;21987;-75
2022/06/07 05:59:35;;;;;;;11.40;10.30;;;;;;;24.49;57.93;100257.61;110163;1260;21971;-76
2022/06/07 06:02:09;;;;;;;10.20;9.20;;;;;;;24.85;57.08;100255.66;109285;1267;22525;-75
2022/06/07 06:04:44;;;;;;;9.10;8.30;;;;;;;25.23;56.07;100262.29;109238;1267;22001;-76
2022/06/07 06:07:20;;;;;;;8.90;8.10;;;;;;;25.58;54.80;100263.05;109398;1266;23621;-75
2022/06/07 06:12:48;;;;;;;8.60;7.80;;;;;;;26.20;53.11;100262.78;108926;1270;23114;-75
2022/06/07 06:15:21;;;;;;;10.30;9.40;;;;;;;26.45;52.51;100261.77;109194;1270;21966;-77
2022/06/07 06:17:51;;;;;;;;;;;;;;;26.68;51.70;100262.08;109142;1264;23083;-76
2022/06/07 06:20:32;;;;;;;10.30;9.00;;;;;;;26.86;51.68;100263.52;109319;1265;21987;-76
2022/06/07 06:23:09;;;;;;;10.80;8.80;;;;;;;27.12;50.79;100267.15;109477;1263;22997;-75
2022/06/07 06:25:42;;;;;;;9.30;8.40;;;;;;;27.32;50.33;100264.13;109464;1264;22893;-76
2022/06/07 06:28:12;;;;;;;8.20;7.50;;;;;;;27.56;50.15;100262.64;109951;1260;22018;-76
2022/06/07 06:30:44;;;;;;;8.30;7.60;;;;;;;27.86;49.32;100258.08;109982;1260;21999;-75
2022/06/07 06:33:23;;;;;;;7.80;7.10;;;;;;;28.00;47.70;100256.05;110256;1259;23007;-75
2022/06/07 06:35:55;;;;;;;;;;;;;;;28.10;47.63;100256.50;110924;1250;23106;-75
2022/06/07 06:38:34;;;;;;;6.40;5.90;;;;;;;28.20;47.47;100258.89;110576;1251;21969;-76
2022/06/07 06:41:28;;;;;;;7.40;6.40;;;;;;;28.33;46.95;100259.89;110721;1253;23038;-76
2022/06/07 06:44:02;;;;;;;6.20;5.60;;;;;;;28.58;47.08;100254.86;110878;1251;21961;-76
2022/06/07 06:46:45;;;;;;;6.70;6.10;;;;;;;28.82;46.01;100250.54;110692;1251;21980;-76
2022/06/07 06:49:16;;;;;;;8.60;6.60;;;;;;;29.02;45.57;100245.05;110557;1254;23135;-78
2022/06/07 06:51:50;;;;;;;7.30;6.60;;;;;;;29.25;45.27;100243.90;110498;1254;23101;-80
2022/06/07 06:54:23;;;;;;;8.60;6.20;;;;;;;29.40;44.19;100250.42;110649;1251;21993;-80
2022/06/07 06:57:01;;;;;;;9.10;6.40;;;;;;;29.44;44.09;100247.73;110708;1254;21983;-76
2022/06/07 06:59:31;;;;;;;31.00;7.40;;;;;;;29.52;43.68;100243.09;110633;1251;22067;-77
2022/06/07 07:02:03;;;;;;;10.30;5.90;;;;;;;29.48;43.06;100242.17;110449;1254;21966;-77
2022/06/07 07:04:44;;;;;;;8.80;4.70;;;;;;;29.37;43.08;100238.81;110421;1254;23102;-77
2022/06/07 07:07:14;;;;;;;5.60;4.60;;;;;;;29.45;44.03;100237.11;110410;1254;22066;-79
2022/06/07 07:09:43;;;;;;;6.10;4.60;;;;;;;29.71;44.03;100234.27;110307;1255;22026;-78
2022/06/07 07:12:14;;;;;;;10.70;4.90;;;;;;;29.85;42.97;100236.10;110558;1254;21957;-77
2022/06/07 07:14:53;;;;;;;5.10;4.60;;;;;;;29.94;42.72;100237.98;109991;1260;22025;-78
2022/06/07 07:17:33;;;;;;;4.60;3.70;;;;;;;30.04;42.46;100238.44;109942;1261;23844;-77
2022/06/07 07:20:05;;;;;;;6.50;3.70;;;;;;;30.18;42.13;100240.96;110030;1261;21978;-78
2022/06/07 07:22:36;;;;;;;5.80;4.30;;;;;;;30.28;41.16;100242.91;109987;1260;22997;-77
2022/06/07 07:25:07;;;;;;;;;;;;;;;30.42;41.30;100245.02;109975;1260;23159;-77
2022/06/07 07:27:36;;;;;;;4.60;4.20;;;;;;;30.48;40.63;100241.00;109772;1261;22974;-76
2022/06/07 07:30:07;;;;;;;4.20;3.80;;;;;;;30.58;40.94;100241.45;109904;1260;21988;-77
2022/06/07 07:32:38;;;;;;;3.70;3.20;;;;;;;30.69;39.97;100245.14;110073;1257;23059;-77
2022/06/07 07:35:09;;;;;;;;;;;;;;;30.51;39.24;100247.85;110108;1257;23773;-76
2022/06/07 07:37:45;;;;;;;4.90;4.40;;;;;;;30.13;39.29;100249.64;110070;1257;22783;-76
2022/06/07 07:40:17;;;;;;;4.70;4.20;;;;;;;29.84;39.91;100250.76;110363;1257;21975;-77
2022/06/07 07:42:46;;;;;;;6.20;3.30;;;;;;;29.75;40.68;100252.65;110421;1257;21982;-75
2022/06/07 07:45:23;;;;;;;4.00;3.60;;;;;;;29.67;40.72;100251.33;110346;1257;21955;-76
2022/06/07 07:47:54;;;;;;;5.60;4.10;;;;;;;29.67;40.75;100249.85;110211;1257;23787;-76
2022/06/07 07:50:24;;;;;;;5.70;4.90;;;;;;;29.60;40.29;100253.61;110043;1257;23064;-76
2022/06/07 07:52:59;;;;;;;5.10;4.60;;;;;;;29.48;40.60;100246.15;110378;1257;21963;-77
2022/06/07 07:55:30;;;;;;;7.70;5.10;;;;;;;29.39;41.01;100241.95;110593;1251;24292;-75
2022/06/07 07:58:00;;;;;;;8.90;3.80;;;;;;;29.28;41.20;100238.67;110644;1251;22180;-76
2022/06/07 08:00:31;;;;;;;6.80;4.60;;;;;;;29.30;41.84;100237.30;110850;1251;22005;-74
2022/06/07 08:03:04;;;;;;;4.10;3.70;;;;;;;29.42;41.67;100243.15;110642;1251;21962;-76
2022/06/07 08:05:41;;;;;;;5.00;4.50;;;;;;;29.38;40.72;100248.22;110593;1251;23655;-76
2022/06/07 08:08:10;;;;;;;7.90;5.30;;;;;;;29.16;40.01;100251.70;110537;1251;21954;-76
2022/06/07 08:10:40;;;;;;;4.10;3.80;;;;;;;28.89;40.51;100250.15;110565;1251;21950;-76
2022/06/07 08:13:12;;;;;;;5.40;4.90;;;;;;;28.64;41.15;100253.23;110534;1251;21962;-77
2022/06/07 08:15:44;;;;;;;6.70;5.50;;;;;;;28.37;41.98;100255.75;110374;1251;356151;-75
2022/06/07 08:18:14;;;;;;;6.70;6.00;;;;;;;28.13;42.43;100254.84;110567;1250;22117;-75
2022/06/07 08:20:43;;;;;;;7.90;6.00;;;;;;;27.96;43.27;100252.52;110529;1251;22416;-74
2022/06/07 08:23:13;;;;;;;8.20;5.90;;;;;;;27.83;43.63;100251.27;110714;1251;22822;-76
2022/06/07 08:25:43;;;;;;;5.90;5.40;;;;;;;27.78;44.37;100253.43;110704;1252;23536;-75
2022/06/07 08:28:12;;;;;;;12.50;7.30;;;;;;;27.76;44.51;100253.89;110991;1251;21948;-75
2022/06/07 08:30:48;;;;;;;7.20;6.60;;;;;;;27.76;44.53;100255.55;110722;1251;21963;-76
2022/06/07 08:39:05;;;;;;;7.80;7.20;;;;;;;27.62;44.68;100253.59;110774;1251;23799;-75
2022/06/07 08:41:47;;;;;;;;;;;;;;;27.53;44.71;100252.16;110749;1251;22710;-75
2022/06/07 08:44:32;;;;;;;6.70;6.10;;;;;;;27.35;44.90;100247.98;110601;1251;22026;-75
2022/06/07 08:47:11;;;;;;;6.00;5.40;;;;;;;27.39;45.84;100246.88;110631;1251;22759;-75
2022/06/07 08:49:40;;;;;;;5.70;5.20;;;;;;;27.59;45.21;100248.14;110714;1251;23087;-75
2022/06/07 08:52:18;;;;;;;6.80;6.10;;;;;;;27.70;43.98;100247.89;110074;1257;22847;-75
2022/06/07 08:55:02;;;;;;;7.70;6.20;;;;;;;27.63;43.73;100248.59;110182;1257;22767;-75
2022/06/07 08:57:36;;;;;;;7.40;5.80;;;;;;;27.55;43.98;100248.55;110440;1257;22490;-75
2022/06/07 09:00:28;;;;;;;5.20;4.70;;;;;;;27.48;44.42;100246.98;110359;1258;22352;-75
2022/06/07 09:03:15;;;;;;;5.60;5.10;;;;;;;27.42;44.62;100245.16;110391;1257;22394;-75
2022/06/07 09:05:51;;;;;;;5.80;5.10;;;;;;;27.36;44.95;100245.69;110418;1257;22082;-76
2022/06/07 09:08:22;;;;;;;5.10;4.60;;;;;;;27.44;45.30;100242.43;109803;1263;21987;-76
2022/06/07 09:13:51;;;;;;;5.70;5.10;;;;;;;27.68;44.43;100233.03;110207;1257;21999;-76
2022/06/07 09:16:20;;;;;;;6.30;5.60;;;;;;;27.71;44.50;100234.03;110113;1256;21962;-75
2022/06/07 09:18:51;;;;;;;5.80;4.90;;;;;;;27.73;44.46;100231.90;110481;1256;22760;-76
2022/06/07 09:21:31;;;;;;;6.00;4.90;;;;;;;27.79;44.70;100231.55;110282;1256;21963;-75
2022/06/07 09:24:02;;;;;;;7.20;5.60;;;;;;;27.99;44.62;100228.54;110080;1257;23630;-75
2022/06/07 09:26:37;;;;;;;;;;;;;;;28.04;43.39;100223.66;109983;1260;21965;-75
2022/06/07 09:29:21;;;;;;;6.00;4.00;;;;;;;27.92;43.41;100221.83;109210;1266;21987;-75
2022/06/07 09:31:51;;;;;;;6.80;4.00;;;;;;;28.12;44.23;100220.26;109146;1267;23111;-76
2022/06/07 09:34:29;;;;;;;5.20;4.70;;;;;;;28.40;44.16;100217.80;109251;1264;24176;-75
2022/06/07 09:37:12;;;;;;;4.20;3.80;;;;;;;28.60;42.93;100212.19;109647;1263;22213;-75
2022/06/07 09:39:44;;;;;;;4.10;3.70;;;;;;;28.68;42.18;100204.46;109300;1263;21977;-76
2022/06/07 09:42:30;;;;;;;4.40;3.40;;;;;;;28.69;41.63;100204.57;109592;1263;23067;-75
2022/06/07 09:45:12;;;;;;;5.00;3.50;;;;;;;28.59;41.38;100197.19;109765;1259;24270;-74
2022/06/07 09:47:41;;;;;;;5.10;3.70;;;;;;;28.51;41.62;100194.25;110455;1257;22950;-75
2022/06/07 09:50:23;;;;;;;5.50;3.10;;;;;;;28.49;41.99;100193.64;110199;1258;23589;-75
2022/06/07 09:53:07;;;;;;;4.90;3.30;;;;;;;28.48;41.68;100184.13;110280;1258;21930;-75
2022/06/07 09:56:00;;;;;;;3.80;3.50;;;;;;;28.40;41.40;100185.14;110550;1250;22993;-75
2022/06/07 09:58:47;;;;;;;5.40;4.20;;;;;;;28.25;41.39;100186.88;110962;1250;22992;-76
2022/06/07 10:01:26;;;;;;;;;;;;;;;28.13;41.96;100187.71;110873;1250;22771;-75
2022/06/07 10:04:36;;;;;;;8.70;4.80;;;;;;;28.02;42.55;100190.60;110779;1250;21996;-75
2022/06/07 10:07:54;;;;;;;13.00;11.80;;;;;;;27.93;42.58;100189.61;110838;1250;23059;-75
2022/06/07 10:10:46;;;;;;;9.70;8.80;;;;;;;27.83;42.82;100182.88;110905;1250;21959;-74
2022/06/07 10:13:54;;;;;;;8.90;4.70;;;;;;;27.79;43.03;100180.03;111131;1248;23017;-75
2022/06/07 10:16:46;;;;;;;10.70;6.00;;;;;;;27.76;43.71;100179.61;110864;1250;23022;-75
2022/06/07 10:19:43;;;;;;;7.50;6.90;;;;;;;27.82;43.94;100177.67;110848;1250;23784;-75
2022/06/07 10:22:21;;;;;;;8.60;5.90;;;;;;;27.88;43.56;100174.79;110478;1256;21981;-76
2022/06/07 10:24:51;;;;;;;13.90;9.00;;;;;;;27.93;43.40;100178.11;110517;1256;21980;-75
2022/06/07 10:27:39;;;;;;;12.30;11.10;;;;;;;27.98;43.41;100178.77;110492;1256;22106;-76
2022/06/07 10:30:43;;;;;;;6.40;5.80;;;;;;;28.01;43.19;100173.62;110081;1256;21968;-75
2022/06/07 10:33:51;;;;;;;10.20;5.40;;;;;;;28.00;43.13;100171.08;110504;1256;21967;-76
2022/06/07 10:36:53;;;;;;;10.60;9.60;;;;;;;27.96;43.56;100174.48;109072;1267;22001;-76
2022/06/07 10:40:09;;;;;;;6.90;6.30;;;;;;;28.08;43.72;100171.11;109132;1267;21984;-76
2022/06/07 10:42:57;;;;;;;7.40;6.00;;;;;;;28.09;43.18;100173.96;109880;1262;21972;-75
2022/06/07 10:45:38;;;;;;;7.90;5.90;;;;;;;28.11;43.57;100172.38;109265;1263;22086;-77
2022/06/07 10:48:46;;;;;;;13.40;12.30;;;;;;;28.12;42.89;100168.23;109686;1262;21964;-76
2022/06/07 10:55:10;;;;;;;7.30;6.30;;;;;;;27.98;43.20;100163.92;109850;1257;23073;-77
2022/06/07 10:57:57;;;;;;;17.10;6.30;;;;;;;27.80;42.72;100167.69;110464;1256;23039;-76
2022/06/07 11:00:53;;;;;;;5.80;5.30;;;;;;;27.69;43.25;100169.52;110271;1257;23681;-76
2022/06/07 11:03:38;;;;;;;10.10;5.30;;;;;;;27.52;43.20;100166.96;110327;1256;21978;-75
2022/06/07 11:09:22;;;;;;;5.70;4.80;;;;;;;27.43;43.74;100159.34;110234;1257;23669;-75
2022/06/07 11:12:13;;;;;;;5.60;4.90;;;;;;;27.41;43.21;100157.77;110177;1257;22029;-76
2022/06/07 11:15:07;;;;;;;5.20;4.70;;;;;;;27.37;43.17;100155.64;110555;1251;22391;-76
2022/06/07 11:18:09;;;;;;;5.40;4.70;;;;;;;27.36;43.41;100150.92;110319;1254;24378;-75
2022/06/07 11:21:02;;;;;;;5.80;4.40;;;;;;;27.30;43.80;100153.64;110301;1256;23628;-76
2022/06/07 11:23:39;;;;;;;5.90;3.90;;;;;;;27.35;44.20;100149.04;110496;1254;22585;-76
2022/06/07 11:26:18;;;;;;;4.60;3.80;;;;;;;27.41;43.64;100140.25;110199;1254;24295;-76
2022/06/07 11:28:53;;;;;;;5.00;4.60;;;;;;;27.42;43.67;100139.92;110330;1256;23653;-75
2022/06/07 11:31:39;;;;;;;4.10;3.80;;;;;;;27.46;43.24;100139.98;110477;1256;23770;-75
2022/06/07 11:34:31;;;;;;;11.20;4.60;;;;;;;27.47;43.15;100142.15;110499;1254;23766;-75
2022/06/07 11:37:10;;;;;;;4.50;4.10;;;;;;;27.49;43.28;100142.02;110510;1251;21975;-75
2022/06/07 11:39:39;;;;;;;3.80;3.50;;;;;;;27.56;43.30;100140.06;110831;1251;21970;-76
2022/06/07 11:42:11;;;;;;;3.90;3.50;;;;;;;27.60;42.93;100135.42;110555;1254;21965;-76
2022/06/07 11:44:46;;;;;;;4.40;3.60;;;;;;;27.62;42.66;100127.97;110838;1251;21970;-76
2022/06/07 11:47:29;;;;;;;5.20;3.90;;;;;;;27.64;42.80;100130.27;110857;1251;23594;-76
2022/06/07 11:50:10;;;;;;;4.60;4.20;;;;;;;27.68;42.63;100129.64;110807;1251;23053;-77
2022/06/07 11:53:27;;;;;;;4.40;3.50;;;;;;;27.74;42.60;100129.96;110540;1253;24288;-76
2022/06/07 11:56:21;;;;;;;4.80;4.30;;;;;;;27.77;42.41;100131.91;109526;1263;21990;-75
2022/06/07 11:59:17;;;;;;;5.20;3.60;;;;;;;27.65;42.12;100133.89;108880;1270;23605;-75
2022/06/07 12:02:08;;;;;;;5.10;3.90;;;;;;;27.58;42.19;100132.16;108353;1276;21989;-76
2022/06/07 12:04:40;;;;;;;7.00;4.40;;;;;;;27.54;42.04;100127.23;108408;1275;23182;-75
2022/06/07 12:07:51;;;;;;;4.30;3.70;;;;;;;27.53;41.98;100119.85;108446;1276;23682;-76
2022/06/07 12:10:31;;;;;;;8.30;3.90;;;;;;;27.50;41.56;100122.21;108242;1279;23134;-76
2022/06/07 12:13:49;;;;;;;4.90;3.60;;;;;;;27.48;42.06;100126.58;107880;1279;23664;-76
2022/06/07 12:16:25;;;;;;;5.30;4.80;;;;;;;27.51;42.16;100124.91;108166;1276;24345;-76
2022/06/07 12:18:58;;;;;;;4.40;3.50;;;;;;;27.51;42.12;100123.40;108396;1276;22462;-75
2022/06/07 12:21:33;;;;;;;3.50;3.20;;;;;;;27.49;42.29;100126.83;108421;1276;23093;-73
2022/06/07 12:24:14;;;;;;;12.30;11.10;;;;;;;27.48;42.15;100129.34;108196;1282;22013;-76
2022/06/07 12:26:46;;;;;;;5.30;3.90;;;;;;;27.48;42.28;100127.55;108161;1282;21997;-76
2022/06/07 12:29:29;;;;;;;5.40;4.80;;;;;;;27.47;42.03;100128.16;108116;1282;22127;-75
2022/06/07 12:32:06;;;;;;;5.30;3.50;;;;;;;27.48;41.51;100123.00;108249;1276;22000;-76
2022/06/07 12:34:37;;;;;;;5.10;3.20;;;;;;;27.44;41.23;100119.63;108536;1275;23684;-78
2022/06/07 12:37:09;;;;;;;5.60;3.40;;;;;;;27.35;40.96;100115.58;108520;1275;23724;-79
2022/06/07 12:39:57;;;;;;;9.30;8.10;;;;;;;27.30;41.15;100111.44;108608;1273;24394;-74
2022/06/07 12:42:33;;;;;;;6.20;3.60;;;;;;;27.30;41.17;100109.60;108474;1276;21988;-75
2022/06/07 12:45:18;;;;;;;8.50;6.10;;;;;;;27.26;41.06;100108.77;108647;1273;21998;-74
2022/06/07 12:48:08;;;;;;;8.60;5.90;;;;;;;27.21;41.52;100107.99;108875;1264;23841;-73
2022/06/07 12:50:40;;;;;;;7.30;4.00;;;;;;;27.12;41.87;100110.91;109920;1256;23289;-77
2022/06/07 12:53:26;;;;;;;5.10;4.20;;;;;;;27.04;41.87;100107.44;110213;1258;23651;-76